Avalon School, Santa Catalina Island Weather observations

Data are for 10 minute period ending at time listed.
 Day   Time   Solar   Ave.   Ave.  Ave.  Vector    Max.   Stn.    Total
  of    of     Rad.   Air    Rel.  Wind   Wind     Wind   Baro.  Precip.
Year   Day            Temp.  Hum.  Speed  Dir.     Gust   Pres.         
2016   (PST)   W/m2    F      %     mph   deg.      mph    mb.     in.  
------------------------------------------------------------------------
 268    5:40    1.0    61   69.0     2    260.4     3.6    999.0   1.57  
 268    5:50    4.0    62   67.2     2    260.9     3.6    999.0   2.00  
 268    6:00    8.0    61   68.0     1    239.3     2.4    999.0   1.66  
 268    6:10   13.0    61   67.6     2    245.2     3.0    999.0   2.00  
 268    6:20   18.0    62   68.3     1    254.3     2.4    999.0   1.88  
 268    6:30   75.0    64   68.9     0    229.4     1.8    999.0   1.35  
 268    6:40  109.0    67   65.8     0      0.0     0.0    999.0   0.12  
 268    6:50  135.0    69   63.8     0      0.0     0.0    999.0   0.01  
 268    7:00  162.0    70   59.4     1    107.1     3.0    999.0   0.05  
 268    7:10  190.0    72   55.6     0      0.0     0.0    999.0   0.05  
 268    7:20  218.0    73   54.0     1     96.0     2.4    999.0   0.00  
 268    7:30  247.0    73   60.1     2     84.4     3.0    999.0   0.00  
 268    7:40  275.0    77   58.4     0    129.9     1.2    999.0   0.00  
 268    7:50  303.0    77   62.1     2    111.3     3.0    999.0   0.03  
 268    8:00  331.0    76   65.8     2    115.6     4.8    999.0   0.00  
 268    8:10  358.0    76   66.6     3    125.1     5.4    999.0   0.00  
 268    8:20  386.0    77   62.2     2    122.5     4.2    999.0   0.01  
 268    8:30  412.0    76   63.5     3    115.3     4.8    999.0   0.02  
 268    8:40  436.0    77   62.9     3    102.4     5.4    999.0   0.00  
 268    8:50  460.0    76   62.0     3     90.0     5.4    999.0   0.04  
 268    9:00  483.0    77   62.3     2     60.3     5.4    999.0   0.00  
 268    9:10  504.0    78   60.4     3    106.5     4.8    999.0   0.00  
 268    9:20  525.0    78   57.9     4     96.7     6.0    999.0   0.00  
 268    9:30  545.0    79   52.8     3    100.6     6.0    999.0   0.00  
 268    9:40  564.0    78   52.1     4     99.9     6.0    999.0   0.00  
 268    9:50  583.0    79   50.3     4     95.6     7.2    999.0   0.00  
 268   10:00  599.0    79   50.4     4     99.1     7.2    999.0   0.00  
 268   10:10  614.0    79   49.8     4    100.7     7.8    999.0   0.00  
 268   10:20  629.0    78   50.0     5    101.9     9.0    999.0   0.00  
 268   10:30  642.0    78   48.2     4    101.7     7.8    999.0   0.00  
 268   10:40  654.0    79   46.7     5    104.5     8.4    999.0   0.00  
 268   10:50  665.0    79   45.7     5    107.4     8.4    999.0   0.00  
 268   11:00  676.0    79   45.4     5    105.2     8.4    999.0   0.00  
 268   11:10  681.0    80   44.3     4     93.9     8.4    999.0   0.00  
 268   11:20  685.0    79   44.1     5    110.4     9.6    999.0   0.00  
 268   11:30  690.0    79   43.1     5    106.7     7.8    999.0   0.00  
 268   11:40  692.0    80   43.8     5    100.1     8.4    999.0   0.00  
 268   11:50  694.0    80   43.2     5    109.9     9.0    999.0   0.00  
 268   12:00  693.0    80   42.9     4     92.4     7.2    999.0   0.00  
 268   12:10  692.0    80   43.7     4    113.8     7.2    999.0   0.00  
 268   12:20  687.0    80   44.5     4     91.9     7.2    999.0   0.00  
 268   12:30  682.0    80   45.2     4    100.2     6.6    999.0   0.00  
 268   12:40  677.0    80   45.4     5     94.9     8.4    999.0   0.00  
 268   12:50  669.0    80   46.5     4    108.7     7.2    999.0   0.00  
 268   13:00  659.0    80   47.4     5    109.8     7.2    999.0   0.00  
 268   13:10  648.0    80   47.9     4    114.3     7.2    999.0   0.00  
 268   13:20  637.0    81   48.3     4    113.2     6.0    999.0   0.00  
 268   13:30  624.0    80   48.2     4    113.7     6.6    999.0   0.05  
 268   13:40  610.0    80   48.8     4    101.9     6.6    999.0   0.00  
 268   13:50  594.0    79   49.9     4    102.9     6.6    999.0   0.16  
 268   14:00  577.0    80   50.1     4    107.8     7.8    999.0   0.34  
 268   14:10  559.0    80   51.5     4    111.2     6.6    999.0   0.00  
 268   14:20  540.0    80   51.1     4    117.3     6.0    999.0   0.00  
 268   14:30  519.0    80   51.6     4    112.0     7.8    999.0   0.00  
 268   14:40  498.0    80   54.3     4    115.8     6.6    999.0   0.00  
 268   14:50  474.0    80   55.2     3    105.9     6.6    999.0   0.00  
 268   15:00  449.0    80   55.4     3    131.1     4.8    999.0   0.00  
 268   15:10  423.0    80   55.7     3    103.9     5.4    999.0   0.00  
 268   15:20  397.0    81   53.8     3    110.9     7.2    999.0   0.00  
 268   15:30  371.0    80   54.2     3    108.5     6.6    999.0   0.00  
 268   15:40  344.0    80   52.2     2    157.7     4.2    999.0   0.00  
 268   15:50  316.0    80   53.1     3    121.2     6.6    999.0   0.00  
 268   16:00  286.0    79   56.5     3    111.2     5.4    999.0   0.00  
 268   16:10  255.0    77   62.9     3     94.5     6.6    999.0   0.00  
 268   16:20  217.0    79   61.5     2     91.0     4.8    999.0   0.00  
 268   16:30   25.0    77   65.8     2     94.3     4.8    999.0   0.00  
 268   16:40   21.0    76   68.3     1     46.2     3.0    999.0   0.00  
 268   16:50   18.0    74   67.7     0      0.0     0.0    999.0   0.00  
 268   17:00   17.0    74   66.7     0      0.0     0.0    999.0   0.00  
 268   17:10   15.0    74   68.3     0    276.6     2.4    999.0   0.00  
 268   17:20   13.0    74   70.7     1    239.5     3.0    999.0   0.02  
 268   17:30   10.0    73   71.1     0    259.1     1.2    999.0   0.00  
 268   17:40    8.0    72   71.7     0    264.3     2.4    999.0   0.00  
 268   17:50    4.0    71   72.2     1    261.9     2.4    999.0   0.00  
 268   18:00    2.0    70   71.7     1    264.1     2.4    999.0   1.29  
 268   18:10    0.0    70   71.1     1    255.4     3.0    999.0   1.60  
 268   18:20    0.0    69   71.5     0    260.8     1.8    999.0   0.81  
 268   18:30    0.0    69   70.8     2    265.8     3.6    999.0   1.43  
 268   18:40    0.0    70   69.5     1    196.3     3.0    999.0   0.68  
 268   18:50    0.0    68   69.3     2    265.3     3.0    999.0   0.97  
 268   19:00    0.0    69   64.8     2    262.4     3.6    999.0   1.96  
 268   19:10    0.0    69   63.2     0    246.8     2.4    999.0   1.87  
 268   19:20    0.0    67   63.8     1    265.7     3.0    999.0   1.60  
 268   19:30    0.0    68   60.4     1    256.5     2.4    999.0   1.20  
 268   19:40    0.0    68   59.6     1    261.9     3.0    999.0   1.04  
 268   19:50    0.0    67   59.5     1    265.6     1.8    999.0   0.87  
 268   20:00    0.0    67   58.7     2    264.2     4.2    999.0   0.81  
 268   20:10    0.0    67   54.0     1    259.5     3.6    999.0   0.67  
 268   20:20    0.0    67   54.0     1    264.2     3.6    999.0   0.00  
 268   20:30    0.0    67   49.5     2    256.2     3.6    999.0   0.00  
 268   20:40    0.0    68   46.8     2    268.2     3.6    999.0   0.00  
 268   20:50    0.0    69   41.8     2    264.5     3.6    999.0   0.00  
 268   21:00    0.0    69   40.4     2    249.6     3.6    999.0   0.00  
 268   21:10    0.0    68   40.9     2    261.1     3.6    999.0   0.00  
 268   21:20    0.0    68   41.6     1    259.6     4.2    999.0   0.00  
 268   21:30    0.0    68   40.8     2    261.0     4.2    999.0   0.00  
 268   21:40    0.0    68   39.2     2    259.4     4.2    999.0   0.00  
 268   21:50    0.0    68   39.6     1    265.9     3.0    999.0   0.00  
 268   22:00    0.0    68   39.0     2    241.1     2.4    999.0   0.59  
 268   22:10    0.0    68   40.6     2    275.6     3.6    999.0   0.00  
 268   22:20    0.0    68   40.6     1    256.7     3.0    999.0   0.20  
 268   22:30    0.0    67   43.9     2    251.3     2.4    999.0   1.01  
 268   22:40    0.0    67   45.6     1    258.8     3.6    999.0   0.05  
 268   22:50    0.0    67   42.9     2    257.6     3.6    999.0   0.00  
 268   23:00    0.0    67   42.8     2    143.3     3.6    999.0   0.00  
 268   23:10    0.0    66   43.6     2    269.9     3.6    999.0   0.00  
 268   23:20    0.0    66   44.8     2    258.5     4.2    999.0   0.00  
 268   23:30    0.0    66   45.8     1    258.6     3.0    999.0   0.00  
 268   23:40    0.0    66   46.9     1    268.8     2.4    999.0   0.00  
 268   23:50    0.0    65   47.1     1    225.6     3.0    999.0   0.00  
 269    0:00    0.0    65   46.1     2    270.4     3.6    999.0   0.00  
 269    0:10    0.0    64   46.1     1    268.6     4.2    999.0   0.00  
 269    0:20    0.0    65   45.4     1    187.4     3.0    999.0   0.01  
 269    0:30    0.0    64   44.9     2    256.8     4.8    999.0   0.00  
 269    0:40    0.0    65   43.1     0    259.4     2.4    999.0   0.00  
 269    0:50    0.0    65   42.3     2    267.2     2.4    999.0   0.00  
 269    1:00    0.0    66   40.8     1    267.3     3.0    999.0   0.00  
 269    1:10    0.0    66   41.2     2    263.0     3.0    999.0   0.00  
 269    1:20    0.0    66   41.4     1    257.1     3.0    999.0   0.00  
 269    1:30    0.0    65   42.0     2    258.4     3.6    999.0   0.00  
 269    1:40    0.0    67   40.0     2    262.9     3.6    999.0   0.00  
 269    1:50    0.0    68   39.1     1    249.2     3.0    999.0   0.01  
 269    2:00    0.0    68   38.6     1    265.0     3.0    999.0   1.13  
 269    2:10    0.0    68   38.6     1    247.2     3.6    999.0   0.00  
 269    2:20    0.0    67   39.3     2    266.4     3.6    999.0   0.00  
 269    2:30    0.0    67   39.2     2    254.7     3.0    999.0   0.00  
 269    2:40    0.0    67   39.8     2    261.2     3.6    999.0   0.00  
 269    2:50    0.0    69   37.5     1    251.4     3.0    999.0   0.00  
 269    3:00    0.0    67   39.4     2    262.6     3.0    999.0   0.00  
 269    3:10    0.0    67   39.6     1    239.3     2.4    999.0   0.01  
 269    3:20    0.0    66   39.6     2    264.7     3.0    999.0   0.00  
 269    3:30    0.0    67   39.9     2    256.1     3.0    999.0   0.01  
 269    3:40    0.0    67   40.9     2    257.7     3.0    999.0   0.00  
 269    3:50    0.0    67   41.7     2    262.0     4.8    999.0   0.00  
 269    4:00    0.0    67   42.8     2    270.3     4.8    999.0   0.00  
 269    4:10    0.0    66   44.3     1    218.1     2.4    999.0   0.00  
 269    4:20    0.0    65   45.5     0    187.0     1.8    999.0   0.00  
 269    4:30    0.0    64   46.7     2    271.9     3.6    999.0   0.00  
 269    4:40    0.0    65   47.0     2    262.6     4.2    999.0   0.00  
 269    4:50    0.0    65   47.3     2     53.7     5.4    999.0   0.00  
 269    5:00    0.0    65   47.5     2    133.9     4.8    999.0   0.00  
 269    5:10    0.0    66   48.5     3    284.9     6.0    999.0   0.03  
 269    5:20    0.0    67   49.2     2    289.7     4.8    999.0   0.00  
 269    5:30    0.0    64   51.3     1     94.0     2.4    999.0   0.00  

Return to Avalon School graphs page.


Western Regional Climate Center,wrcc@dri.edu